Time;durP1;ratioP1;P1;durP2;ratioP2;P2;SDS_P1;SDS_P2;PMS_P1;PMS_P2;Temp;Humidity;BMP_temperature;BMP_pressure;BME280_temperature;BME280_humidity;BME280_pressure;Samples;Min_cycle;Max_cycle;Signal;HPM_P1;HPM_P2
2021/09/29 00:00:37;;;;;;;;;;;;;;;12.88;69.61;99739.72;5054878;28;20299;-71
2021/09/29 00:03:02;;;;;;;;;;;;;;;12.87;69.81;99735.34;5052602;28;19958;-72
2021/09/29 00:05:27;;;;;;;;;;;;;;;12.84;70.06;99739.03;5055057;28;19919;-73
2021/09/29 00:07:53;;;;;;;;;;;;;;;12.84;69.69;99730.25;5035778;28;19959;-72
2021/09/29 00:10:18;;;;;;;;;;;;;;;12.86;69.95;99726.56;5055554;28;19912;-72
2021/09/29 00:12:44;;;;;;;;;;;;;;;12.88;70.02;99726.50;5054086;28;19921;-72
2021/09/29 00:15:13;;;;;;;;;;;;;;;12.92;70.23;99732.44;5051915;28;19920;-72
2021/09/29 00:17:39;;;;;;;;;;;;;;;12.93;70.55;99721.78;5051450;28;20311;-72
2021/09/29 00:20:05;;;;;;;;;;;;;;;12.96;69.71;99731.31;5050425;28;19917;-71
2021/09/29 00:22:30;;;;;;;;;;;;;;;13.01;69.86;99727.44;5050706;28;19912;-72
2021/09/29 00:24:56;;;;;;;;;;;;;;;13.07;70.17;99720.97;5057014;28;19923;-72
2021/09/29 00:27:21;;;;;;;;;;;;;;;13.10;69.67;99721.59;5050010;28;19923;-72
2021/09/29 00:29:54;;;;;;;;;;;;;;;13.14;69.15;99709.03;5050989;28;19939;-72
2021/09/29 00:32:19;;;;;;;;;;;;;;;13.18;69.76;99715.00;5030568;28;20376;-72
2021/09/29 00:34:45;;;;;;;;;;;;;;;13.20;69.22;99705.16;5049179;28;19963;-71
2021/09/29 00:37:10;;;;;;;;;;;;;;;13.22;69.34;99705.94;5048982;28;19913;-72
2021/09/29 00:39:35;;;;;;;;;;;;;;;13.23;69.32;99703.16;5048857;28;19999;-71
2021/09/29 00:42:01;;;;;;;;;;;;;;;13.23;69.71;99699.69;5048217;28;20018;-72
2021/09/29 00:44:27;;;;;;;;;;;;;;;13.22;69.45;99696.19;5049345;28;20035;-72
2021/09/29 00:46:53;;;;;;;;;;;;;;;13.22;68.85;99693.53;5049149;28;19955;-71
2021/09/29 00:49:18;;;;;;;;;;;;;;;13.22;69.53;99684.75;5048724;28;19917;-71
2021/09/29 00:51:43;;;;;;;;;;;;;;;13.22;69.31;99692.69;5048815;28;20003;-73
2021/09/29 00:54:09;;;;;;;;;;;;;;;13.25;68.84;99688.06;5050303;28;19939;-73
2021/09/29 00:56:34;;;;;;;;;;;;;;;13.27;68.86;99690.66;5053957;28;20287;-72
2021/09/29 00:59:00;;;;;;;;;;;;;;;13.26;69.00;99680.94;5051780;28;20860;-73
2021/09/29 01:01:25;;;;;;;;;;;;;;;13.25;68.81;99677.47;5005765;28;19913;-73
2021/09/29 01:03:52;;;;;;;;;;;;;;;13.28;69.60;99673.81;5031202;28;19913;-73
2021/09/29 01:06:27;;;;;;;;;;;;;;;13.27;69.03;99672.97;4999094;28;20403;-73
2021/09/29 01:08:56;;;;;;;;;;;;;;;13.32;69.18;99668.22;5013367;28;19913;-73
2021/09/29 01:11:23;;;;;;;;;;;;;;;13.34;68.13;99668.13;5012018;28;19953;-72
2021/09/29 01:13:59;;;;;;;;;;;;;;;13.35;68.00;99669.81;5011719;28;19955;-72
2021/09/29 01:16:26;;;;;;;;;;;;;;;13.38;68.05;99658.19;5013024;28;19913;-73
2021/09/29 01:18:55;;;;;;;;;;;;;;;13.41;67.51;99658.00;5013241;28;19914;-72
2021/09/29 01:21:21;;;;;;;;;;;;;;;13.43;67.68;99661.41;5015502;28;19976;-73
2021/09/29 01:23:49;;;;;;;;;;;;;;;13.43;67.56;99649.00;5012717;28;19996;-73
2021/09/29 01:26:16;;;;;;;;;;;;;;;13.47;67.59;99654.97;5013788;28;19917;-73
2021/09/29 01:28:47;;;;;;;;;;;;;;;13.48;66.84;99649.56;5012431;28;19920;-73
2021/09/29 01:31:13;;;;;;;;;;;;;;;13.47;67.10;99645.22;5012460;28;19967;-73
2021/09/29 01:33:40;;;;;;;;;;;;;;;13.49;67.01;99642.50;5031653;28;19917;-72
2021/09/29 01:36:06;;;;;;;;;;;;;;;13.48;66.75;99644.25;5031817;28;19945;-72
2021/09/29 01:38:32;;;;;;;;;;;;;;;13.48;67.07;99636.31;5030296;28;19959;-72
2021/09/29 01:40:58;;;;;;;;;;;;;;;13.49;66.48;99624.78;5031345;28;19913;-72
2021/09/29 01:43:23;;;;;;;;;;;;;;;13.50;66.78;99626.47;5031267;28;19912;-72
2021/09/29 01:45:48;;;;;;;;;;;;;;;13.52;66.43;99613.16;5031845;28;20003;-72
2021/09/29 01:48:17;;;;;;;;;;;;;;;13.50;66.31;99612.41;5029339;28;20262;-73
2021/09/29 01:50:44;;;;;;;;;;;;;;;13.50;66.40;99615.88;5029987;28;19948;-72
2021/09/29 01:53:10;;;;;;;;;;;;;;;13.47;66.42;99607.31;5030565;28;19948;-72
2021/09/29 01:55:36;;;;;;;;;;;;;;;13.46;66.05;99600.28;5021761;28;19963;-71
2021/09/29 01:58:02;;;;;;;;;;;;;;;13.45;66.58;99595.94;5031084;28;20004;-71
2021/09/29 02:00:27;;;;;;;;;;;;;;;13.50;66.00;99593.84;5031051;28;20004;-72
2021/09/29 02:02:56;;;;;;;;;;;;;;;13.53;66.54;99593.66;5030294;28;20004;-73
2021/09/29 02:05:29;;;;;;;;;;;;;;;13.50;65.86;99586.75;5031006;28;19912;-72
2021/09/29 02:07:54;;;;;;;;;;;;;;;13.56;66.11;99582.00;5029845;28;19917;-72
2021/09/29 02:10:19;;;;;;;;;;;;;;;13.62;65.77;99578.97;5031082;28;19913;-71
2021/09/29 02:12:45;;;;;;;;;;;;;;;13.62;65.55;99584.28;5030177;28;19940;-72
2021/09/29 02:15:10;;;;;;;;;;;;;;;13.63;65.58;99572.72;5029429;28;19913;-71
2021/09/29 02:17:35;;;;;;;;;;;;;;;13.66;65.54;99575.16;5030789;28;19920;-71
2021/09/29 02:20:01;;;;;;;;;;;;;;;13.70;65.59;99571.38;5030282;28;19913;-72
2021/09/29 02:22:26;;;;;;;;;;;;;;;13.73;65.63;99558.78;5029916;28;19917;-72
2021/09/29 02:24:51;;;;;;;;;;;;;;;13.75;65.67;99569.25;5031033;28;20368;-72
2021/09/29 02:27:16;;;;;;;;;;;;;;;13.75;65.01;99556.00;5012835;28;19917;-72
2021/09/29 02:29:42;;;;;;;;;;;;;;;13.75;65.54;99558.66;5031788;28;20051;-72
2021/09/29 02:32:07;;;;;;;;;;;;;;;13.78;64.97;99558.44;5029824;28;19928;-72
2021/09/29 02:34:32;;;;;;;;;;;;;;;13.75;65.34;99564.81;5030540;28;20454;-72
2021/09/29 02:36:57;;;;;;;;;;;;;;;13.70;65.61;99560.78;5030226;28;20270;-72
2021/09/29 02:39:23;;;;;;;;;;;;;;;13.67;65.92;99563.63;5029729;28;20373;-72
2021/09/29 02:41:48;;;;;;;;;;;;;;;13.65;65.44;99566.38;5028851;28;19919;-73
2021/09/29 02:44:13;;;;;;;;;;;;;;;13.68;65.90;99549.41;5030619;28;19913;-72
2021/09/29 02:46:40;;;;;;;;;;;;;;;13.67;65.76;99556.53;5030612;28;20323;-73
2021/09/29 02:49:06;;;;;;;;;;;;;;;13.66;65.68;99552.19;5030482;28;19913;-73
2021/09/29 02:51:31;;;;;;;;;;;;;;;13.65;65.55;99552.28;5029715;28;19919;-73
2021/09/29 02:53:57;;;;;;;;;;;;;;;13.65;65.87;99545.19;5028782;28;19920;-72
2021/09/29 02:56:22;;;;;;;;;;;;;;;13.61;65.95;99549.00;5030376;28;20384;-72
2021/09/29 02:58:48;;;;;;;;;;;;;;;13.56;65.72;99545.81;5028561;28;19920;-72
2021/09/29 03:01:15;;;;;;;;;;;;;;;13.53;66.11;99540.69;5029422;28;19939;-72
2021/09/29 03:03:40;;;;;;;;;;;;;;;13.47;65.69;99533.16;5029749;28;19996;-72
2021/09/29 03:06:06;;;;;;;;;;;;;;;13.47;65.62;99536.66;5022719;28;19992;-70
2021/09/29 03:08:31;;;;;;;;;;;;;;;13.46;66.35;99532.31;5010549;28;20480;-72
2021/09/29 03:10:56;;;;;;;;;;;;;;;13.48;66.35;99538.31;5009795;28;19921;-72
2021/09/29 03:13:21;;;;;;;;;;;;;;;13.47;65.81;99530.50;5010384;28;19918;-71
2021/09/29 03:15:47;;;;;;;;;;;;;;;13.47;66.36;99527.84;5010249;28;20012;-72
2021/09/29 03:18:14;;;;;;;;;;;;;;;13.43;65.97;99527.19;5010097;28;20377;-73
2021/09/29 03:20:39;;;;;;;;;;;;;;;13.42;65.96;99520.22;5010480;28;19920;-72
2021/09/29 03:23:04;;;;;;;;;;;;;;;13.44;65.94;99520.97;5012080;28;19913;-73
2021/09/29 03:25:30;;;;;;;;;;;;;;;13.45;65.71;99520.00;5014083;28;19965;-73
2021/09/29 03:27:55;;;;;;;;;;;;;;;13.45;65.72;99514.69;5027432;28;19917;-73
2021/09/29 03:30:20;;;;;;;;;;;;;;;13.45;66.36;99508.56;5031239;28;19913;-72
2021/09/29 03:32:45;;;;;;;;;;;;;;;13.46;65.54;99515.53;5029411;28;19959;-73
2021/09/29 03:35:12;;;;;;;;;;;;;;;13.46;66.03;99513.78;5029540;28;20093;-73
2021/09/29 03:37:37;;;;;;;;;;;;;;;13.48;65.94;99513.66;5029460;28;19936;-72
2021/09/29 03:40:03;;;;;;;;;;;;;;;13.50;65.80;99506.47;5029241;28;20424;-72
2021/09/29 03:42:28;;;;;;;;;;;;;;;13.51;65.86;99501.06;5011234;28;20442;-72
2021/09/29 03:44:53;;;;;;;;;;;;;;;13.50;66.14;99503.81;5028208;28;19920;-72
2021/09/29 03:47:18;;;;;;;;;;;;;;;13.51;66.13;99501.06;5029824;28;20020;-72
2021/09/29 03:49:44;;;;;;;;;;;;;;;13.49;65.63;99504.78;5029366;28;19920;-72
2021/09/29 03:52:09;;;;;;;;;;;;;;;13.53;65.87;99493.84;5028456;28;19916;-72
2021/09/29 03:54:34;;;;;;;;;;;;;;;13.53;65.75;99493.00;5029201;28;19917;-72
2021/09/29 03:57:00;;;;;;;;;;;;;;;13.51;66.50;99495.78;5028154;28;19964;-73
2021/09/29 03:59:25;;;;;;;;;;;;;;;13.50;66.35;99491.41;5029840;28;19916;-72
2021/09/29 04:01:51;;;;;;;;;;;;;;;13.52;66.45;99497.47;5029604;28;19921;-73
2021/09/29 04:04:16;;;;;;;;;;;;;;;13.53;66.03;99496.50;5029426;28;19963;-73
2021/09/29 04:06:41;;;;;;;;;;;;;;;13.53;66.29;99496.50;5027714;28;19924;-71
2021/09/29 04:09:07;;;;;;;;;;;;;;;13.55;66.20;99490.28;5029015;28;20301;-71
2021/09/29 04:11:33;;;;;;;;;;;;;;;13.56;66.58;99494.59;5028622;28;20011;-72
2021/09/29 04:13:58;;;;;;;;;;;;;;;13.59;66.04;99497.91;5029093;28;19924;-72
2021/09/29 04:16:24;;;;;;;;;;;;;;;13.59;65.88;99489.13;5029098;28;19917;-71
2021/09/29 04:18:49;;;;;;;;;;;;;;;13.58;66.04;99482.13;5029537;28;20007;-72
2021/09/29 04:21:14;;;;;;;;;;;;;;;13.53;66.64;99480.59;5026965;28;20380;-73
2021/09/29 04:23:40;;;;;;;;;;;;;;;13.55;66.22;99477.03;5029072;28;20284;-72
2021/09/29 04:26:06;;;;;;;;;;;;;;;13.56;66.85;99476.06;5028776;28;20741;-73
2021/09/29 04:28:31;;;;;;;;;;;;;;;13.58;66.59;99472.34;5028848;28;19913;-72
2021/09/29 04:30:57;;;;;;;;;;;;;;;13.59;66.30;99474.06;5031443;28;19917;-73
2021/09/29 04:33:22;;;;;;;;;;;;;;;13.59;66.50;99471.44;5033125;28;19975;-73
2021/09/29 04:35:48;;;;;;;;;;;;;;;13.62;66.04;99471.22;5032654;28;20380;-72
2021/09/29 04:38:13;;;;;;;;;;;;;;;13.62;66.28;99479.16;5031372;28;20245;-72
2021/09/29 04:40:39;;;;;;;;;;;;;;;13.65;66.72;99476.31;5032941;28;19963;-72
2021/09/29 04:43:04;;;;;;;;;;;;;;;13.67;66.05;99473.56;5032417;28;19913;-72
2021/09/29 04:45:30;;;;;;;;;;;;;;;13.70;65.79;99471.53;5033087;28;19913;-73
2021/09/29 04:47:55;;;;;;;;;;;;;;;13.70;65.91;99470.69;5034825;28;19996;-74
2021/09/29 04:50:20;;;;;;;;;;;;;;;13.72;65.74;99469.63;5033731;28;19921;-72
2021/09/29 04:52:45;;;;;;;;;;;;;;;13.72;66.33;99471.44;5034523;28;19925;-72
2021/09/29 04:55:11;;;;;;;;;;;;;;;13.74;66.24;99474.84;5034567;28;19913;-72
2021/09/29 04:57:37;;;;;;;;;;;;;;;13.78;66.56;99475.47;5035334;28;19920;-72
2021/09/29 05:00:02;;;;;;;;;;;;;;;13.80;66.28;99470.94;5032259;28;19913;-73
2021/09/29 05:02:28;;;;;;;;;;;;;;;13.80;66.75;99469.13;5031566;28;19916;-73
2021/09/29 05:04:54;;;;;;;;;;;;;;;13.83;66.75;99481.31;5035520;28;19920;-71
2021/09/29 05:07:20;;;;;;;;;;;;;;;13.86;66.79;99474.03;5027127;28;20000;-72
2021/09/29 05:09:46;;;;;;;;;;;;;;;13.80;66.84;99466.47;5011996;28;19928;-73
2021/09/29 05:12:23;;;;;;;;;;;;;;;13.82;67.42;99466.38;5013039;28;19918;-72
2021/09/29 05:14:48;;;;;;;;;;;;;;;13.83;67.80;99460.13;5012580;28;19924;-72
2021/09/29 05:17:14;;;;;;;;;;;;;;;13.81;68.40;99459.38;5013052;28;19914;-73
2021/09/29 05:19:39;;;;;;;;;;;;;;;13.78;68.66;99459.59;5013541;28;19945;-72
2021/09/29 05:22:06;;;;;;;;;;;;;;;13.72;69.07;99450.25;5011989;28;19960;-73
2021/09/29 05:24:31;;;;;;;;;;;;;;;13.69;69.28;99451.31;5013027;28;19948;-72
2021/09/29 05:26:56;;;;;;;;;;;;;;;13.69;70.12;99445.16;5032076;28;19988;-72
2021/09/29 05:29:22;;;;;;;;;;;;;;;13.67;70.38;99439.97;5023447;28;19916;-71
2021/09/29 05:31:47;;;;;;;;;;;;;;;13.66;71.42;99440.94;5030930;28;19928;-71
2021/09/29 05:34:12;;;;;;;;;;;;;;;13.65;70.54;99443.66;5029530;28;20391;-72
2021/09/29 05:36:37;;;;;;;;;;;;;;;13.64;70.33;99450.78;5029581;28;20357;-72
2021/09/29 05:39:03;;;;;;;;;;;;;;;13.64;71.48;99442.00;5031716;28;20317;-72
2021/09/29 05:41:28;;;;;;;;;;;;;;;13.63;70.66;99440.28;5030651;28;20343;-72
2021/09/29 05:43:53;;;;;;;;;;;;;;;13.62;70.87;99450.03;5031828;28;19913;-72
2021/09/29 05:46:18;;;;;;;;;;;;;;;13.60;71.15;99446.63;5030819;28;19920;-73
2021/09/29 05:48:44;;;;;;;;;;;;;;;13.62;71.74;99441.25;5030937;28;19917;-72
2021/09/29 05:51:09;;;;;;;;;;;;;;;13.65;72.00;99444.50;5030619;28;19924;-73
2021/09/29 05:53:34;;;;;;;;;;;;;;;13.65;70.80;99441.88;5031741;28;19920;-72
2021/09/29 05:55:59;;;;;;;;;;;;;;;13.64;70.99;99439.34;5031307;28;19913;-73
2021/09/29 05:58:25;;;;;;;;;;;;;;;13.65;70.50;99441.88;5031711;28;20440;-72
2021/09/29 06:00:50;;;;;;;;;;;;;;;13.66;70.54;99448.00;5031168;28;19913;-73
2021/09/29 06:03:18;;;;;;;;;;;;;;;13.65;70.37;99443.66;5029997;28;19971;-72
2021/09/29 06:05:44;;;;;;;;;;;;;;;13.63;71.21;99448.22;5030814;28;19917;-72
2021/09/29 06:08:09;;;;;;;;;;;;;;;13.63;70.03;99434.97;5030775;28;20422;-72
2021/09/29 06:10:34;;;;;;;;;;;;;;;13.61;69.54;99447.47;5030728;28;20377;-72
2021/09/29 06:12:59;;;;;;;;;;;;;;;13.57;69.53;99446.00;5028597;28;19917;-73
2021/09/29 06:15:29;;;;;;;;;;;;;;;13.57;69.61;99448.66;5031602;28;19916;-72
2021/09/29 06:17:58;;;;;;;;;;;;;;;13.61;69.44;99432.44;5030814;28;19979;-72
2021/09/29 06:20:23;;;;;;;;;;;;;;;13.65;69.10;99441.03;5029635;28;20044;-72
2021/09/29 06:22:49;;;;;;;;;;;;;;;13.67;69.05;99439.13;5030144;28;19975;-72
2021/09/29 06:25:14;;;;;;;;;;;;;;;13.69;68.25;99439.88;5031540;28;19913;-72
2021/09/29 06:27:39;;;;;;;;;;;;;;;13.74;68.65;99443.06;5031355;28;19940;-72
2021/09/29 06:30:05;;;;;;;;;;;;;;;13.80;67.72;99457.69;5031168;28;19913;-72
2021/09/29 06:32:30;;;;;;;;;;;;;;;13.83;67.88;99457.47;5030384;28;20399;-73
2021/09/29 06:34:55;;;;;;;;;;;;;;;13.77;68.36;99471.97;5032423;28;19920;-71
2021/09/29 06:37:21;;;;;;;;;;;;;;;13.57;70.66;99478.63;5031785;28;19913;-73
2021/09/29 06:39:46;;;;;;;;;;;;;;;13.24;73.06;99474.56;5030874;28;19913;-72
2021/09/29 06:42:11;;;;;;;;;;;;;;;13.06;74.73;99471.31;5028657;28;19916;-73
2021/09/29 06:44:36;;;;;;;;;;;;;;;13.02;75.21;99475.13;5030699;28;19936;-72
2021/09/29 06:47:02;;;;;;;;;;;;;;;12.96;76.10;99469.34;5030815;28;19920;-73
2021/09/29 06:49:28;;;;;;;;;;;;;;;12.97;75.75;99469.28;5030731;28;20372;-72
2021/09/29 06:51:54;;;;;;;;;;;;;;;12.96;76.35;99472.84;5028973;28;20001;-72
2021/09/29 06:54:19;;;;;;;;;;;;;;;12.94;76.86;99464.16;5029477;28;20004;-72
2021/09/29 06:56:45;;;;;;;;;;;;;;;12.95;76.39;99467.69;5030315;28;20704;-72
2021/09/29 06:59:10;;;;;;;;;;;;;;;12.91;77.51;99472.28;5028792;28;19920;-72
2021/09/29 07:01:35;;;;;;;;;;;;;;;12.81;77.27;99463.25;5027371;28;19921;-74
2021/09/29 07:04:01;;;;;;;;;;;;;;;12.75;77.26;99455.69;5030544;28;20011;-73
2021/09/29 07:06:26;;;;;;;;;;;;;;;12.74;78.86;99456.66;5031699;28;19917;-73
2021/09/29 07:08:51;;;;;;;;;;;;;;;12.72;78.39;99458.53;5029692;28;20423;-73
2021/09/29 07:11:17;;;;;;;;;;;;;;;12.68;78.41;99458.75;5029609;28;19917;-72
2021/09/29 07:13:42;;;;;;;;;;;;;;;12.65;78.47;99458.94;5028274;28;19920;-72
2021/09/29 07:16:09;;;;;;;;;;;;;;;12.65;78.92;99456.28;5027922;28;19913;-72
2021/09/29 07:18:38;;;;;;;;;;;;;;;12.67;78.76;99458.81;5030088;28;19912;-72
2021/09/29 07:21:03;;;;;;;;;;;;;;;12.70;78.44;99463.94;5029682;28;20316;-72
2021/09/29 07:23:30;;;;;;;;;;;;;;;12.70;77.68;99455.13;5029031;28;19912;-73
2021/09/29 07:25:55;;;;;;;;;;;;;;;12.68;77.99;99463.19;5029150;28;19963;-74
2021/09/29 07:28:20;;;;;;;;;;;;;;;12.63;78.73;99455.53;5022704;28;19940;-73
2021/09/29 07:30:46;;;;;;;;;;;;;;;12.60;79.19;99466.31;5011391;28;19936;-74
2021/09/29 07:33:12;;;;;;;;;;;;;;;12.61;79.14;99457.44;5016966;28;19920;-73
2021/09/29 07:35:39;;;;;;;;;;;;;;;12.60;78.55;99458.38;5030085;28;20411;-72
2021/09/29 07:38:05;;;;;;;;;;;;;;;12.60;79.17;99447.81;5030389;28;19913;-72
2021/09/29 07:40:30;;;;;;;;;;;;;;;12.63;78.35;99441.47;5030015;28;19920;-73
2021/09/29 07:42:56;;;;;;;;;;;;;;;12.66;78.19;99442.13;5029133;28;19917;-72
2021/09/29 07:45:21;;;;;;;;;;;;;;;12.68;78.64;99440.22;5029390;28;19920;-73
2021/09/29 07:47:47;;;;;;;;;;;;;;;12.74;78.85;99436.34;5029430;28;20000;-73
2021/09/29 07:50:15;;;;;;;;;;;;;;;12.79;78.35;99438.69;5029609;28;19999;-73
2021/09/29 07:52:41;;;;;;;;;;;;;;;12.86;78.78;99453.22;5028708;28;19921;-73
2021/09/29 07:55:06;;;;;;;;;;;;;;;12.87;78.70;99449.63;5029285;28;19920;-74
2021/09/29 07:57:31;;;;;;;;;;;;;;;12.94;78.87;99448.28;5031027;28;19963;-70
2021/09/29 07:59:57;;;;;;;;;;;;;;;13.02;78.76;99458.38;5041313;28;19920;-72
2021/09/29 08:02:22;;;;;;;;;;;;;;;13.02;78.61;99453.06;5037900;28;20004;-73
2021/09/29 08:04:47;;;;;;;;;;;;;;;13.03;78.34;99452.13;5032398;28;19920;-72
2021/09/29 08:07:14;;;;;;;;;;;;;;;13.03;78.08;99433.63;5033588;28;19941;-73
2021/09/29 08:09:39;;;;;;;;;;;;;;;13.17;77.87;99440.63;5031766;28;19996;-72
2021/09/29 08:12:04;;;;;;;;;;;;;;;13.56;76.73;99436.34;5032415;28;20428;-72
2021/09/29 08:14:29;;;;;;;;;;;;;;;13.66;75.89;99442.69;5033370;28;19916;-73
2021/09/29 08:16:55;;;;;;;;;;;;;;;13.57;75.76;99454.78;5032619;28;20312;-73
2021/09/29 08:19:20;;;;;;;;;;;;;;;13.53;76.46;99451.47;5032824;28;19941;-73
2021/09/29 08:21:47;;;;;;;;;;;;;;;13.43;77.01;99454.84;5032687;28;20285;-73
2021/09/29 08:24:22;;;;;;;;;;;;;;;13.34;77.75;99448.38;5031591;28;19913;-72
2021/09/29 08:34:57;;;;;;;;;;;;;;;13.17;78.35;99477.69;5032223;28;19932;-73
2021/09/29 08:40:24;;;;;;;;;;;;;;;13.01;79.98;99517.53;5030198;28;19913;-72
2021/09/29 08:48:23;;;;;;;;;;;;;;;13.01;77.15;99518.38;5032697;28;20288;-72
2021/09/29 09:16:08;;;;;;;;;;;;;;;12.11;75.17;99582.09;5011888;28;19952;-72
2021/09/29 09:18:12;;;;;;;;;;;;;;;11.99;75.11;99570.47;5011569;28;19914;-72
2021/09/29 09:20:43;;;;;;;;;;;;;;;12.02;75.01;99560.56;5012414;28;19913;-72
2021/09/29 09:23:08;;;;;;;;;;;;;;;12.02;75.31;99562.38;5011670;28;20373;-72
2021/09/29 09:25:38;;;;;;;;;;;;;;;12.06;76.30;99560.38;5022319;28;19913;-73
2021/09/29 09:28:04;;;;;;;;;;;;;;;12.22;76.01;99555.91;5032895;28;19913;-73
2021/09/29 09:30:34;;;;;;;;;;;;;;;12.42;75.98;99533.53;5033258;28;19970;-73
2021/09/29 09:32:59;;;;;;;;;;;;;;;12.67;75.55;99535.53;5033016;28;19956;-72
2021/09/29 09:35:28;;;;;;;;;;;;;;;13.22;73.23;99544.44;5033236;28;19917;-73
2021/09/29 09:37:57;;;;;;;;;;;;;;;13.42;70.47;99553.78;5031779;28;19956;-73
2021/09/29 09:40:25;;;;;;;;;;;;;;;13.40;72.51;99561.81;5031455;28;19913;-72
2021/09/29 09:42:55;;;;;;;;;;;;;;;13.42;71.50;99564.38;5029440;28;20012;-73
2021/09/29 09:45:28;;;;;;;;;;;;;;;14.18;69.34;99575.22;5031370;28;19994;-73
2021/09/29 09:47:53;;;;;;;;;;;;;;;14.15;70.10;99580.72;5031302;28;19913;-74
2021/09/29 09:50:25;;;;;;;;;;;;;;;14.01;70.57;99577.31;5029573;28;19913;-72
2021/09/29 09:52:51;;;;;;;;;;;;;;;13.98;69.79;99577.47;5027502;28;19917;-72
2021/09/29 09:55:17;;;;;;;;;;;;;;;14.32;69.71;99579.59;5028388;28;19919;-72
2021/09/29 09:57:43;;;;;;;;;;;;;;;14.64;68.21;99581.00;5027862;28;19913;-72
2021/09/29 10:00:10;;;;;;;;;;;;;;;14.32;68.19;99570.75;5030603;28;20273;-72
2021/09/29 10:02:42;;;;;;;;;;;;;;;14.06;67.84;99569.88;5029024;28;19917;-73
2021/09/29 10:05:11;;;;;;;;;;;;;;;13.78;68.56;99587.59;5029657;28;20059;-73
2021/09/29 10:07:37;;;;;;;;;;;;;;;13.58;70.73;99583.59;5030834;28;20323;-73
2021/09/29 10:10:11;;;;;;;;;;;;;;;13.43;70.40;99587.25;5031320;28;19913;-74
2021/09/29 10:24:01;;;;;;;;;;;;;;;14.29;67.34;99587.72;5031147;28;20383;-73
2021/09/29 10:26:27;;;;;;;;;;;;;;;14.18;68.06;99585.81;5029494;28;20365;-73
2021/09/29 10:29:07;;;;;;;;;;;;;;;14.00;68.94;99596.78;5030199;28;20001;-73
2021/09/29 11:29:22;;;;;;;;;;;;;;;11.72;70.45;99679.38;5026444;28;20296;-71
2021/09/29 11:34:14;;;;;;;;;;;;;;;12.26;72.43;99689.59;5029550;28;19919;-72
2021/09/29 12:09:52;;;;;;;;;;;;;;;13.94;69.90;99693.47;5029708;28;19924;-71
2021/09/29 12:12:27;;;;;;;;;;;;;;;14.03;70.16;99689.34;5028863;28;19925;-72
2021/09/29 12:14:54;;;;;;;;;;;;;;;14.19;68.96;99698.00;5029405;28;20008;-72
2021/09/29 12:17:20;;;;;;;;;;;;;;;14.33;67.82;99695.31;5027274;28;20024;-72
2021/09/29 12:19:51;;;;;;;;;;;;;;;14.43;67.02;99702.66;5029135;28;19917;-72
2021/09/29 12:22:17;;;;;;;;;;;;;;;14.49;65.82;99707.53;5028598;28;19917;-72
2021/09/29 12:24:56;;;;;;;;;;;;;;;14.39;63.88;99700.19;5027332;28;20051;-73
2021/09/29 12:27:23;;;;;;;;;;;;;;;14.46;65.42;99705.09;5028753;28;19913;-73
2021/09/29 12:29:51;;;;;;;;;;;;;;;14.51;65.52;99710.94;5028865;28;19913;-73
2021/09/29 12:35:08;;;;;;;;;;;;;;;14.51;61.11;99710.94;5028937;28;20399;-73
2021/09/29 12:37:34;;;;;;;;;;;;;;;14.70;61.80;99714.09;5031267;28;19920;-71
2021/09/29 12:39:59;;;;;;;;;;;;;;;14.78;61.50;99721.53;5028023;28;19913;-72
2021/09/29 12:42:29;;;;;;;;;;;;;;;14.70;59.92;99750.41;5028040;28;20482;-71
2021/09/29 12:44:54;;;;;;;;;;;;;;;14.58;57.99;99758.22;5027447;28;19913;-74
2021/09/29 12:49:45;;;;;;;;;;;;;;;14.30;56.25;99774.19;5028179;28;20408;-73
2021/09/29 12:52:11;;;;;;;;;;;;;;;14.13;55.70;99768.22;5030976;28;20368;-73
2021/09/29 12:54:43;;;;;;;;;;;;;;;13.87;55.42;99776.97;5032698;28;19913;-74
2021/09/29 12:57:09;;;;;;;;;;;;;;;13.70;56.73;99770.06;5031938;28;19912;-74
2021/09/29 12:59:34;;;;;;;;;;;;;;;13.61;57.14;99775.94;5032902;28;19913;-73
2021/09/29 13:01:59;;;;;;;;;;;;;;;13.65;57.85;99775.66;5031525;28;20004;-73
2021/09/29 13:04:25;;;;;;;;;;;;;;;13.69;59.30;99786.91;5032524;28;20003;-72
2021/09/29 13:06:50;;;;;;;;;;;;;;;13.63;60.25;99800.53;5015419;28;20395;-73
2021/09/29 13:09:15;;;;;;;;;;;;;;;13.39;61.29;99805.53;5012045;28;19917;-72
2021/09/29 13:11:41;;;;;;;;;;;;;;;13.13;62.44;99807.91;5011887;28;19918;-73
2021/09/29 13:14:06;;;;;;;;;;;;;;;13.03;63.93;99812.91;5012769;28;19920;-72
2021/09/29 13:16:32;;;;;;;;;;;;;;;12.96;64.06;99810.72;5012298;28;20340;-72
2021/09/29 13:19:02;;;;;;;;;;;;;;;12.89;63.99;99820.78;5010705;28;19921;-72
2021/09/29 13:21:37;;;;;;;;;;;;;;;12.80;64.09;99821.34;5012633;28;19921;-72
2021/09/29 13:26:56;;;;;;;;;;;;;;;12.70;64.16;99821.03;5022137;28;20427;-72
2021/09/29 13:37:21;;;;;;;;;;;;;;;12.66;65.00;99841.50;5016237;28;19968;-72
2021/09/29 13:39:46;;;;;;;;;;;;;;;12.66;64.17;99843.28;5032753;28;19917;-71
2021/09/29 13:42:11;;;;;;;;;;;;;;;12.62;64.25;99850.53;5031075;28;19947;-72
2021/09/29 13:44:37;;;;;;;;;;;;;;;12.57;63.76;99857.88;5032325;28;19913;-71
2021/09/29 13:47:02;;;;;;;;;;;;;;;12.53;64.89;99861.66;5030532;28;19935;-71
2021/09/29 13:49:27;;;;;;;;;;;;;;;12.53;65.51;99863.41;5031184;28;20293;-72
2021/09/29 13:51:56;;;;;;;;;;;;;;;12.50;64.38;99860.94;5012423;28;19983;-72
2021/09/29 13:54:23;;;;;;;;;;;;;;;12.53;65.83;99871.34;5031325;28;19919;-72
2021/09/29 13:56:58;;;;;;;;;;;;;;;12.59;64.84;99871.03;5031612;28;19917;-73
2021/09/29 13:59:40;;;;;;;;;;;;;;;12.64;65.44;99863.69;5031492;28;19913;-72
2021/09/29 14:29:21;;;;;;;;;;;;;;;13.22;64.32;99891.25;5030326;28;20332;-72
2021/09/29 14:34:11;;;;;;;;;;;;;;;13.30;62.85;99886.38;5030271;28;20006;-72
2021/09/29 14:36:36;;;;;;;;;;;;;;;13.30;61.77;99889.03;5029240;28;19913;-72
2021/09/29 14:39:02;;;;;;;;;;;;;;;13.32;61.88;99892.44;5030480;28;19913;-73
2021/09/29 14:41:28;;;;;;;;;;;;;;;13.36;61.64;99898.38;5029370;28;19943;-73
2021/09/29 14:43:54;;;;;;;;;;;;;;;13.41;61.66;99907.75;5029996;28;19913;-73
2021/09/29 14:46:19;;;;;;;;;;;;;;;13.40;61.96;99903.41;5030394;28;19913;-73
2021/09/29 14:48:44;;;;;;;;;;;;;;;13.44;62.27;99910.25;5029991;28;19967;-73
2021/09/29 14:51:10;;;;;;;;;;;;;;;13.56;61.35;99921.94;5029537;28;19959;-71
2021/09/29 14:53:36;;;;;;;;;;;;;;;13.73;60.32;99920.88;5030684;28;19948;-71
2021/09/29 14:56:02;;;;;;;;;;;;;;;13.83;58.01;99926.50;5029590;28;19967;-72
2021/09/29 14:58:27;;;;;;;;;;;;;;;13.90;56.97;99925.16;5012564;28;19913;-72
2021/09/29 15:00:53;;;;;;;;;;;;;;;13.93;55.94;99922.31;5009713;28;19914;-72
2021/09/29 15:03:21;;;;;;;;;;;;;;;13.93;55.08;99928.50;5008740;28;19914;-72
2021/09/29 15:05:46;;;;;;;;;;;;;;;13.92;55.21;99933.88;5010194;28;20278;-72
2021/09/29 15:08:11;;;;;;;;;;;;;;;13.91;55.14;99959.53;5008491;28;19920;-72
2021/09/29 15:10:37;;;;;;;;;;;;;;;13.86;54.16;99944.88;5010798;28;19924;-72
2021/09/29 15:13:05;;;;;;;;;;;;;;;13.82;54.98;99944.19;4990919;28;20380;-73
2021/09/29 15:15:33;;;;;;;;;;;;;;;13.82;55.06;99948.66;5008857;28;19925;-74
2021/09/29 15:18:04;;;;;;;;;;;;;;;13.77;54.74;99956.88;5011178;28;20322;-73
2021/09/29 15:23:14;;;;;;;;;;;;;;;13.54;55.01;99958.25;5009825;28;20012;-72
2021/09/29 15:47:18;;;;;;;;;;;;;;;13.19;55.54;99977.00;5022683;28;19920;-72
2021/09/29 15:55:26;;;;;;;;;;;;;;;13.14;56.35;99991.41;5025298;28;20014;-72
2021/09/29 16:00:40;;;;;;;;;;;;;;;13.13;58.07;99995.00;5029315;28;20269;-72
2021/09/29 16:08:50;;;;;;;;;;;;;;;13.06;57.01;99999.78;5052522;28;19967;-72
2021/09/29 16:16:11;;;;;;;;;;;;;;;13.02;56.43;100004.41;5053523;28;20451;-72
2021/09/29 16:32:02;;;;;;;;;;;;;;;12.82;56.12;100028.44;5053123;28;19971;-74
2021/09/29 16:34:34;;;;;;;;;;;;;;;12.82;57.02;100031.09;5053321;28;19920;-73
2021/09/29 16:36:59;;;;;;;;;;;;;;;12.83;56.87;100035.47;5052580;28;19969;-72
2021/09/29 16:39:25;;;;;;;;;;;;;;;12.81;57.04;100047.91;5053040;28;20327;-72
2021/09/29 16:41:50;;;;;;;;;;;;;;;12.79;56.95;100053.28;5050705;28;19920;-73
2021/09/29 16:44:15;;;;;;;;;;;;;;;12.76;57.19;100061.41;5052671;28;19959;-72
2021/09/29 16:46:41;;;;;;;;;;;;;;;12.76;57.42;100069.34;5053077;28;19912;-73
2021/09/29 16:49:08;;;;;;;;;;;;;;;12.76;57.72;100074.63;5052922;28;19939;-72